createdAt,value
2022-10-10T00:00:39.548Z,2.00
2022-10-10T00:03:27.143Z,2.00
2022-10-10T00:05:54.901Z,2.02
2022-10-10T00:08:22.536Z,2.03
2022-10-10T00:10:50.245Z,2.04
2022-10-10T00:13:17.954Z,2.03
2022-10-10T00:15:48.702Z,2.02
2022-10-10T00:18:17.256Z,2.01
2022-10-10T00:20:45.024Z,1.99
2022-10-10T00:23:12.723Z,2.00
2022-10-10T00:25:40.557Z,2.00
2022-10-10T00:28:08.255Z,1.97
2022-10-10T00:30:35.930Z,1.92
2022-10-10T00:33:03.676Z,1.86
2022-10-10T00:35:31.439Z,1.78
2022-10-10T00:37:59.070Z,1.75
2022-10-10T00:40:26.940Z,1.70
2022-10-10T00:42:54.708Z,1.68
2022-10-10T00:45:39.686Z,1.65
2022-10-10T00:48:10.096Z,1.63
2022-10-10T00:50:43.088Z,1.58
2022-10-10T00:53:12.397Z,1.54
2022-10-10T00:55:40.314Z,1.51
2022-10-10T00:58:08.432Z,1.49
2022-10-10T01:00:36.729Z,1.46
2022-10-10T01:03:04.598Z,1.41
2022-10-10T01:05:32.741Z,1.36
2022-10-10T01:08:01.149Z,1.33
2022-10-10T01:10:29.104Z,1.31
2022-10-10T01:13:11.606Z,1.30
2022-10-10T01:16:08.610Z,1.30
2022-10-10T01:18:50.851Z,1.28
2022-10-10T01:21:43.513Z,1.28
2022-10-10T01:24:23.541Z,1.27
2022-10-10T01:26:57.430Z,1.26
2022-10-10T01:29:32.907Z,1.26
2022-10-10T01:32:24.054Z,1.29
2022-10-10T01:35:09.016Z,1.33
2022-10-10T01:37:42.908Z,1.35
2022-10-10T01:40:33.910Z,1.35
2022-10-10T01:43:03.834Z,1.37
2022-10-10T01:45:31.629Z,1.37
2022-10-10T01:48:04.226Z,1.35
2022-10-10T01:50:45.026Z,1.34
2022-10-10T01:53:17.463Z,1.31
2022-10-10T01:55:52.167Z,1.28
2022-10-10T01:58:37.310Z,1.28
2022-10-10T02:01:18.660Z,1.28
2022-10-10T02:03:50.281Z,1.27
2022-10-10T02:06:18.070Z,1.25
2022-10-10T02:08:48.246Z,1.25
2022-10-10T02:11:15.909Z,1.21
2022-10-10T02:13:52.469Z,1.12
2022-10-10T02:16:41.433Z,1.04
2022-10-10T02:19:11.717Z,0.95
2022-10-10T02:21:40.668Z,0.89
2022-10-10T02:24:10.265Z,0.82
2022-10-10T02:26:38.942Z,0.80
2022-10-10T02:29:09.584Z,0.81
2022-10-10T02:31:56.524Z,0.84
2022-10-10T02:34:29.481Z,0.88
2022-10-10T02:36:59.931Z,0.91
2022-10-10T02:39:31.083Z,0.92
2022-10-10T02:41:58.812Z,0.90
2022-10-10T02:44:27.353Z,0.85
2022-10-10T02:46:55.259Z,0.81
2022-10-10T02:49:28.143Z,0.78
2022-10-10T02:51:55.817Z,0.76
2022-10-10T02:54:24.389Z,0.74
2022-10-10T02:56:52.664Z,0.72
2022-10-10T02:59:20.763Z,0.70
2022-10-10T03:01:48.448Z,0.71
2022-10-10T03:04:16.579Z,0.73
2022-10-10T03:06:44.603Z,0.73
2022-10-10T03:09:12.216Z,0.74
2022-10-10T03:11:39.952Z,0.73
2022-10-10T03:14:07.857Z,0.71
2022-10-10T03:16:35.460Z,0.72
2022-10-10T03:19:03.582Z,0.75
2022-10-10T03:21:31.270Z,0.79
2022-10-10T03:23:58.924Z,0.80
2022-10-10T03:26:26.953Z,0.79
2022-10-10T03:28:54.569Z,0.77
2022-10-10T03:31:22.249Z,0.74
2022-10-10T03:33:49.951Z,0.74
2022-10-10T03:36:17.663Z,0.73
2022-10-10T03:38:45.282Z,0.68
2022-10-10T03:41:13.008Z,0.64
2022-10-10T03:43:40.649Z,0.61
2022-10-10T03:46:11.352Z,0.59
2022-10-10T03:48:41.705Z,0.56
2022-10-10T03:51:09.868Z,0.55
2022-10-10T03:53:37.611Z,0.54
2022-10-10T03:56:05.631Z,0.52
2022-10-10T03:58:33.446Z,0.52
2022-10-10T04:01:02.241Z,0.53
2022-10-10T04:03:30.513Z,0.55
2022-10-10T04:05:58.406Z,0.56
2022-10-10T04:08:26.800Z,0.57
2022-10-10T04:10:54.875Z,0.64
2022-10-10T04:13:23.172Z,0.69
2022-10-10T04:15:51.814Z,0.76
2022-10-10T04:18:19.772Z,0.80
2022-10-10T04:20:47.572Z,0.86
2022-10-10T04:23:15.274Z,0.86
2022-10-10T04:25:43.689Z,0.85
2022-10-10T04:28:12.220Z,0.87
2022-10-10T04:30:40.600Z,0.92
2022-10-10T04:33:08.402Z,0.97
2022-10-10T04:35:37.385Z,1.01
2022-10-10T04:38:05.667Z,1.04
2022-10-10T04:40:33.665Z,1.10
2022-10-10T04:43:01.327Z,1.15
2022-10-10T04:45:29.083Z,1.23
2022-10-10T04:47:56.980Z,1.30
2022-10-10T04:50:24.728Z,1.37
2022-10-10T04:52:53.103Z,1.46
2022-10-10T04:55:21.111Z,1.53
2022-10-10T04:57:48.817Z,1.61
2022-10-10T05:00:16.591Z,1.67
2022-10-10T05:02:44.292Z,1.71
2022-10-10T05:05:12.003Z,1.78
2022-10-10T05:07:39.724Z,1.84
2022-10-10T05:10:07.976Z,1.92
2022-10-10T05:12:35.660Z,2.00
2022-10-10T05:15:03.378Z,2.09
2022-10-10T05:17:31.021Z,2.15
2022-10-10T05:19:58.640Z,2.21
2022-10-10T05:22:26.364Z,2.28
2022-10-10T05:24:54.157Z,2.35
2022-10-10T05:27:21.836Z,2.43
2022-10-10T05:29:49.475Z,2.47
2022-10-10T05:32:17.230Z,2.52
2022-10-10T05:34:44.947Z,2.56
2022-10-10T05:37:12.578Z,2.64
2022-10-10T05:39:40.277Z,2.73
2022-10-10T05:42:07.913Z,2.82
2022-10-10T05:44:35.613Z,2.89
2022-10-10T05:47:04.572Z,2.97
2022-10-10T05:49:32.282Z,3.04
2022-10-10T05:52:00.031Z,3.12
2022-10-10T05:54:27.734Z,3.17
2022-10-10T05:56:55.483Z,3.23
2022-10-10T05:59:23.286Z,3.30
2022-10-10T06:01:51.041Z,3.38
2022-10-10T06:04:18.980Z,3.46
2022-10-10T06:06:46.690Z,3.54
2022-10-10T06:09:14.416Z,3.63
2022-10-10T06:11:42.195Z,3.73
2022-10-10T06:14:10.178Z,3.83
2022-10-10T06:16:39.776Z,3.95
2022-10-10T06:19:11.355Z,4.05
2022-10-10T06:21:41.762Z,4.16
2022-10-10T06:24:10.899Z,4.27
2022-10-10T06:26:38.602Z,4.40
2022-10-10T06:29:07.519Z,4.51
2022-10-10T06:31:39.546Z,4.61
2022-10-10T06:34:07.732Z,4.75
2022-10-10T06:36:35.654Z,4.87
2022-10-10T06:39:03.621Z,4.98
2022-10-10T06:41:31.314Z,5.10
2022-10-10T06:43:58.938Z,5.22
2022-10-10T06:46:26.624Z,5.34
2022-10-10T06:48:54.283Z,5.48
2022-10-10T06:51:21.994Z,5.61
2022-10-10T06:53:49.727Z,5.71
2022-10-10T06:56:27.386Z,5.83
2022-10-10T06:58:56.432Z,5.97
2022-10-10T07:01:25.074Z,6.12
2022-10-10T07:03:53.256Z,6.25
2022-10-10T07:06:21.083Z,6.35
2022-10-10T07:08:48.957Z,6.45
2022-10-10T07:11:16.639Z,6.56
2022-10-10T07:13:44.281Z,6.68
2022-10-10T07:16:12.103Z,6.81
2022-10-10T07:18:39.852Z,6.92
2022-10-10T07:21:07.515Z,7.03
2022-10-10T07:23:36.665Z,7.14
2022-10-10T07:26:05.891Z,7.27
2022-10-10T07:28:34.152Z,7.40
2022-10-10T07:31:03.474Z,7.52
2022-10-10T07:33:35.787Z,7.63
2022-10-10T07:36:03.576Z,7.76
2022-10-10T07:38:31.369Z,7.88
2022-10-10T07:40:59.322Z,7.99
2022-10-10T07:43:26.999Z,8.08
2022-10-10T07:45:54.665Z,8.17
2022-10-10T07:48:22.720Z,8.25
2022-10-10T07:50:50.394Z,8.34
2022-10-10T07:53:18.252Z,8.44
2022-10-10T07:55:45.980Z,8.56
2022-10-10T07:58:14.303Z,8.66
2022-10-10T08:00:42.262Z,8.77
2022-10-10T08:03:12.522Z,8.87
2022-10-10T08:05:41.172Z,8.98
2022-10-10T08:08:09.871Z,9.10
2022-10-10T08:10:37.663Z,9.20
2022-10-10T08:13:05.707Z,9.29
2022-10-10T08:15:34.141Z,9.43
2022-10-10T08:18:02.033Z,9.57
2022-10-10T08:20:29.795Z,9.70
2022-10-10T08:22:57.554Z,9.83
2022-10-10T08:25:25.296Z,9.93
2022-10-10T08:27:53.018Z,10.03
2022-10-10T08:30:20.662Z,10.10
2022-10-10T08:32:48.499Z,10.18
2022-10-10T08:35:16.432Z,10.26
2022-10-10T08:37:44.129Z,10.39
2022-10-10T08:40:16.353Z,10.51
2022-10-10T08:42:52.500Z,10.64
2022-10-10T08:45:28.471Z,10.77
2022-10-10T08:48:07.245Z,10.84
2022-10-10T08:50:50.166Z,10.93
2022-10-10T08:53:23.848Z,11.06
2022-10-10T08:55:53.485Z,11.17
2022-10-10T08:58:21.133Z,11.28
2022-10-10T09:00:51.720Z,11.39
2022-10-10T09:03:24.072Z,11.49
2022-10-10T09:05:51.753Z,11.62
2022-10-10T09:08:23.202Z,11.77
2022-10-10T09:10:58.540Z,11.91
2022-10-10T09:13:38.439Z,12.05
2022-10-10T09:16:26.364Z,12.16
2022-10-10T09:19:02.658Z,12.26
2022-10-10T09:21:35.011Z,12.37
2022-10-10T09:24:06.462Z,12.51
2022-10-10T09:26:44.309Z,12.65
2022-10-10T09:29:21.125Z,12.75
2022-10-10T09:31:51.574Z,12.86
2022-10-10T09:34:24.074Z,12.98
2022-10-10T09:36:54.177Z,13.09
2022-10-10T09:39:44.097Z,13.18
2022-10-10T09:42:12.639Z,13.25
2022-10-10T09:44:42.175Z,13.34
2022-10-10T09:47:12.674Z,13.47
2022-10-10T09:49:40.614Z,13.58
2022-10-10T09:52:28.445Z,13.69
2022-10-10T09:55:01.074Z,13.71
2022-10-10T09:57:32.786Z,13.79
2022-10-10T10:00:20.434Z,13.85
2022-10-10T10:02:48.954Z,13.92
2022-10-10T10:05:25.235Z,14.00
2022-10-10T10:07:53.218Z,14.08
2022-10-10T10:10:22.501Z,14.17
2022-10-10T10:12:50.825Z,14.28
2022-10-10T10:15:22.705Z,14.43
2022-10-10T10:18:09.560Z,14.55
2022-10-10T10:20:39.137Z,14.68
2022-10-10T10:23:22.567Z,14.79
2022-10-10T10:26:06.462Z,14.88
2022-10-10T10:28:41.037Z,14.96
2022-10-10T10:31:15.988Z,15.03
2022-10-10T10:34:19.181Z,15.10
2022-10-10T10:36:59.835Z,15.17
2022-10-10T10:39:46.348Z,15.26
2022-10-10T10:42:14.250Z,15.39
2022-10-10T10:44:45.115Z,15.46
2022-10-10T10:47:31.648Z,15.53
2022-10-10T10:50:24.514Z,15.64
2022-10-10T10:53:11.402Z,15.69
2022-10-10T10:55:51.115Z,15.76
2022-10-10T11:01:28.757Z,16.02
2022-10-10T11:05:22.167Z,16.09
2022-10-10T11:07:19.916Z,16.14
2022-10-10T11:09:50.702Z,16.20
2022-10-10T11:12:19.516Z,16.27
2022-10-10T11:14:54.658Z,16.34
2022-10-10T11:17:40.986Z,16.39
2022-10-10T11:20:20.481Z,16.42
2022-10-10T11:22:51.754Z,16.37
2022-10-10T11:25:23.919Z,16.35
2022-10-10T11:28:08.667Z,16.35
2022-10-10T11:30:39.726Z,16.35
2022-10-10T11:33:08.122Z,16.40
2022-10-10T11:35:44.882Z,16.44
2022-10-10T11:38:12.698Z,16.49
2022-10-10T11:40:40.397Z,16.55
2022-10-10T11:43:25.085Z,16.61
2022-10-10T11:45:59.460Z,16.63
2022-10-10T11:48:49.717Z,16.65
2022-10-10T11:51:43.642Z,16.66
2022-10-10T11:54:31.586Z,16.61
2022-10-10T11:57:01.713Z,16.59
2022-10-10T11:59:36.611Z,16.55
2022-10-10T12:02:14.874Z,16.54
2022-10-10T12:04:42.921Z,16.50
2022-10-10T12:07:17.254Z,16.50
2022-10-10T12:09:47.385Z,16.49
2022-10-10T12:12:19.521Z,16.47
2022-10-10T12:14:54.051Z,16.44
2022-10-10T12:17:25.205Z,16.43
2022-10-10T12:19:53.188Z,16.39
2022-10-10T12:22:28.983Z,16.34
2022-10-10T12:25:08.176Z,16.26
2022-10-10T12:27:47.222Z,16.19
2022-10-10T12:30:20.264Z,16.17
2022-10-10T12:32:50.408Z,16.17
2022-10-10T12:35:31.022Z,16.17
2022-10-10T12:38:15.837Z,16.20
2022-10-10T12:41:03.156Z,16.21
2022-10-10T12:43:42.505Z,16.24
2022-10-10T12:46:22.070Z,16.28
2022-10-10T12:49:13.153Z,16.32
2022-10-10T12:51:41.708Z,16.35
2022-10-10T12:54:21.252Z,16.37
2022-10-10T12:56:52.033Z,16.39
2022-10-10T12:59:22.307Z,16.40
2022-10-10T13:01:53.121Z,16.40
2022-10-10T13:04:21.767Z,16.36
2022-10-10T13:06:52.837Z,16.35
2022-10-10T13:09:22.034Z,16.35
2022-10-10T13:12:09.955Z,16.35
2022-10-10T13:14:46.346Z,16.32
2022-10-10T13:17:40.501Z,16.31
2022-10-10T13:20:25.764Z,16.31
2022-10-10T13:22:53.662Z,16.31
2022-10-10T13:25:21.517Z,16.33
2022-10-10T13:27:49.388Z,16.32
2022-10-10T13:30:21.542Z,16.31
2022-10-10T13:32:50.101Z,16.32
2022-10-10T13:35:21.365Z,16.33
2022-10-10T13:37:55.161Z,16.35
2022-10-10T13:40:23.845Z,16.39
2022-10-10T13:42:52.231Z,16.43
2022-10-10T13:45:29.182Z,16.42
2022-10-10T13:48:02.498Z,16.45
2022-10-10T13:50:30.313Z,16.46
2022-10-10T13:53:17.005Z,16.47
2022-10-10T13:55:44.696Z,16.48
2022-10-10T13:58:14.462Z,16.48
2022-10-10T14:00:42.094Z,16.51
2022-10-10T14:03:19.000Z,16.53
2022-10-10T14:05:46.814Z,16.52
2022-10-10T14:08:19.711Z,16.53
2022-10-10T14:10:56.721Z,16.54
2022-10-10T14:13:25.748Z,16.52
2022-10-10T14:15:54.542Z,16.49
2022-10-10T14:18:23.631Z,16.46
2022-10-10T14:20:53.460Z,16.45
2022-10-10T14:23:21.241Z,16.48
2022-10-10T14:25:49.926Z,16.47
2022-10-10T14:28:22.420Z,16.49
2022-10-10T14:30:50.414Z,16.49
2022-10-10T14:33:19.020Z,16.45
2022-10-10T14:35:48.539Z,16.43
2022-10-10T14:38:16.328Z,16.39
2022-10-10T14:40:45.480Z,16.36
2022-10-10T14:43:14.324Z,16.34
2022-10-10T14:45:41.981Z,16.35
2022-10-10T14:48:12.741Z,16.32
2022-10-10T14:50:41.849Z,16.31
2022-10-10T14:53:09.722Z,16.29
2022-10-10T14:55:37.701Z,16.24
2022-10-10T14:58:05.355Z,16.24
2022-10-10T15:00:33.280Z,16.25
2022-10-10T15:03:01.110Z,16.25
2022-10-10T15:05:28.999Z,16.26
2022-10-10T15:07:56.763Z,16.24
2022-10-10T15:10:39.921Z,16.21
2022-10-10T15:13:07.956Z,16.18
2022-10-10T15:15:35.990Z,16.13
2022-10-10T15:18:03.859Z,16.10
2022-10-10T15:20:31.768Z,16.08
2022-10-10T15:23:00.726Z,16.08
2022-10-10T15:25:33.409Z,16.05
2022-10-10T15:28:02.597Z,16.01
2022-10-10T15:30:30.577Z,15.94
2022-10-10T15:32:58.899Z,15.84
2022-10-10T15:35:30.202Z,15.73
2022-10-10T15:38:07.809Z,15.60
2022-10-10T15:40:35.624Z,15.48
2022-10-10T15:43:03.325Z,15.40
2022-10-10T15:45:54.513Z,15.31
2022-10-10T15:48:19.034Z,15.21
2022-10-10T15:50:46.872Z,15.14
2022-10-10T15:53:14.776Z,15.06
2022-10-10T15:55:43.581Z,14.96
2022-10-10T15:58:11.621Z,14.87
2022-10-10T16:00:39.850Z,14.76
2022-10-10T16:03:08.565Z,14.65
2022-10-10T16:05:37.199Z,14.56
2022-10-10T16:08:05.386Z,14.48
2022-10-10T16:10:40.626Z,14.37
2022-10-10T16:13:08.534Z,14.22
2022-10-10T16:15:36.312Z,14.12
2022-10-10T16:18:04.065Z,14.06
2022-10-10T16:20:31.804Z,13.96
2022-10-10T16:22:59.464Z,13.85
2022-10-10T16:25:27.101Z,13.73
2022-10-10T16:27:54.774Z,13.58
2022-10-10T16:30:22.439Z,13.44
2022-10-10T16:32:50.104Z,13.28
2022-10-10T16:35:17.878Z,13.15
2022-10-10T16:37:45.890Z,13.06
2022-10-10T16:40:13.566Z,12.97
2022-10-10T16:42:41.340Z,12.87
2022-10-10T16:45:09.522Z,12.76
2022-10-10T16:47:37.553Z,12.63
2022-10-10T16:50:06.179Z,12.53
2022-10-10T16:52:38.003Z,12.43
2022-10-10T16:55:07.143Z,12.28
2022-10-10T16:57:35.714Z,12.14
2022-10-10T17:00:04.193Z,12.03
2022-10-10T17:02:31.934Z,11.93
2022-10-10T17:05:00.752Z,11.88
2022-10-10T17:07:28.644Z,11.85
2022-10-10T17:09:56.560Z,11.85
2022-10-10T17:12:24.360Z,11.78
2022-10-10T17:14:52.076Z,11.68
2022-10-10T17:17:19.944Z,11.65
2022-10-10T17:19:49.381Z,11.53
2022-10-10T17:22:17.236Z,11.41
2022-10-10T17:24:45.018Z,11.34
2022-10-10T17:27:12.780Z,11.23
2022-10-10T17:29:40.425Z,11.15
2022-10-10T17:32:08.071Z,11.10
2022-10-10T17:34:36.213Z,11.04
2022-10-10T17:37:04.535Z,10.90
2022-10-10T17:39:32.642Z,10.81
2022-10-10T17:42:00.498Z,10.79
2022-10-10T17:44:29.026Z,10.77
2022-10-10T17:46:57.069Z,10.74
2022-10-10T17:49:24.791Z,10.70
2022-10-10T17:51:52.415Z,10.69
2022-10-10T17:54:20.430Z,10.69
2022-10-10T17:56:48.062Z,10.69
2022-10-10T17:59:15.712Z,10.70
2022-10-10T18:01:43.374Z,10.69
2022-10-10T18:04:14.021Z,10.71
2022-10-10T18:06:41.696Z,10.74
2022-10-10T18:09:09.773Z,10.75
2022-10-10T18:11:37.565Z,10.72
2022-10-10T18:14:05.243Z,10.73
2022-10-10T18:16:36.598Z,10.74
2022-10-10T18:19:05.329Z,10.76
2022-10-10T18:21:33.593Z,10.76
2022-10-10T18:24:01.316Z,10.76
2022-10-10T18:26:30.262Z,10.77
2022-10-10T18:28:58.308Z,10.81
2022-10-10T18:31:31.282Z,10.82
2022-10-10T18:33:59.938Z,10.81
2022-10-10T18:36:30.237Z,10.81
2022-10-10T18:38:58.864Z,10.81
2022-10-10T18:41:32.894Z,10.82
2022-10-10T18:44:01.445Z,10.79
2022-10-10T18:46:29.436Z,10.78
2022-10-10T18:48:57.376Z,10.76
2022-10-10T18:51:26.200Z,10.78
2022-10-10T18:54:00.938Z,10.79
2022-10-10T18:56:29.968Z,10.79
2022-10-10T18:58:58.701Z,10.79
2022-10-10T19:01:27.368Z,10.76
2022-10-10T19:03:55.313Z,10.72
2022-10-10T19:06:23.869Z,10.66
2022-10-10T19:08:53.726Z,10.62
2022-10-10T19:11:26.320Z,10.59
2022-10-10T19:13:54.082Z,10.59
2022-10-10T19:16:21.844Z,10.58
2022-10-10T19:18:49.515Z,10.55
2022-10-10T19:21:17.597Z,10.48
2022-10-10T19:23:45.384Z,10.44
2022-10-10T19:26:14.741Z,10.41
2022-10-10T19:28:42.898Z,10.38
2022-10-10T19:31:14.913Z,10.37
2022-10-10T19:33:43.268Z,10.37
2022-10-10T19:36:11.722Z,10.39
2022-10-10T19:38:40.492Z,10.43
2022-10-10T19:41:09.739Z,10.44
2022-10-10T19:43:37.367Z,10.45
2022-10-10T19:46:07.037Z,10.49
2022-10-10T19:48:37.076Z,10.50
2022-10-10T19:51:06.132Z,10.54
2022-10-10T19:53:36.039Z,10.58
2022-10-10T19:56:05.992Z,10.61
2022-10-10T19:58:35.009Z,10.63
2022-10-10T20:01:10.207Z,10.63
2022-10-10T20:03:38.116Z,10.65
2022-10-10T20:06:06.676Z,10.66
2022-10-10T20:08:34.857Z,10.67
2022-10-10T20:11:02.738Z,10.69
2022-10-10T20:13:31.321Z,10.66
2022-10-10T20:16:00.483Z,10.63
2022-10-10T20:18:28.473Z,10.60
2022-10-10T20:20:56.369Z,10.59
2022-10-10T20:23:24.985Z,10.56
2022-10-10T20:25:52.951Z,10.55
2022-10-10T20:28:20.934Z,10.55
2022-10-10T20:30:50.648Z,10.52
2022-10-10T20:33:19.355Z,10.50
2022-10-10T20:35:48.535Z,10.46
2022-10-10T20:38:18.046Z,10.38
2022-10-10T20:40:45.869Z,10.27
2022-10-10T20:43:14.994Z,10.18
2022-10-10T20:45:42.769Z,10.08
2022-10-10T20:48:10.512Z,10.00
2022-10-10T20:50:38.529Z,9.95
2022-10-10T20:53:06.560Z,9.89
2022-10-10T20:55:34.223Z,9.82
2022-10-10T20:58:01.848Z,9.77
2022-10-10T21:00:29.592Z,9.74
2022-10-10T21:02:57.290Z,9.72
2022-10-10T21:05:24.950Z,9.71
2022-10-10T21:07:52.821Z,9.71
2022-10-10T21:10:20.475Z,9.70
2022-10-10T21:12:48.164Z,9.69
2022-10-10T21:15:15.923Z,9.68
2022-10-10T21:17:43.651Z,9.66
2022-10-10T21:20:11.404Z,9.64
2022-10-10T21:22:39.042Z,9.64
2022-10-10T21:25:06.926Z,9.64
2022-10-10T21:27:34.584Z,9.66
2022-10-10T21:30:02.361Z,9.65
2022-10-10T21:32:30.067Z,9.65
2022-10-10T21:34:58.245Z,9.63
2022-10-10T21:37:27.372Z,9.64
2022-10-10T21:39:55.013Z,9.67
2022-10-10T21:42:22.637Z,9.70
2022-10-10T21:44:50.338Z,9.74
2022-10-10T21:47:17.934Z,9.74
2022-10-10T21:49:45.633Z,9.75
2022-10-10T21:52:13.333Z,9.72
2022-10-10T21:54:40.978Z,9.70
2022-10-10T21:57:08.648Z,9.68
2022-10-10T21:59:36.344Z,9.66
2022-10-10T22:02:03.965Z,9.61
2022-10-10T22:04:31.843Z,9.56
2022-10-10T22:06:59.817Z,9.52
2022-10-10T22:09:27.495Z,9.47
2022-10-10T22:11:55.646Z,9.42
2022-10-10T22:14:23.518Z,9.37
2022-10-10T22:16:51.152Z,9.37
2022-10-10T22:19:18.766Z,9.41
2022-10-10T22:21:46.538Z,9.42
2022-10-10T22:24:14.183Z,9.44
2022-10-10T22:26:42.350Z,9.47
2022-10-10T22:29:09.942Z,9.49
2022-10-10T22:31:38.028Z,9.50
2022-10-10T22:34:06.322Z,9.54
2022-10-10T22:36:34.501Z,9.58
2022-10-10T22:39:02.210Z,9.60
2022-10-10T22:41:29.963Z,9.61
2022-10-10T22:43:57.631Z,9.66
2022-10-10T22:46:25.620Z,9.72
2022-10-10T22:48:53.242Z,9.77
2022-10-10T22:51:21.096Z,9.82
2022-10-10T22:53:49.222Z,9.87
2022-10-10T22:56:19.307Z,9.87
2022-10-10T22:58:47.836Z,9.88
2022-10-10T23:01:18.071Z,9.88
2022-10-10T23:03:45.829Z,9.89
2022-10-10T23:06:14.029Z,9.88
2022-10-10T23:08:41.731Z,9.86
2022-10-10T23:11:09.382Z,9.84
2022-10-10T23:13:37.046Z,9.82
2022-10-10T23:16:05.143Z,9.80
2022-10-10T23:18:33.192Z,9.79
2022-10-10T23:21:00.854Z,9.79
2022-10-10T23:23:28.890Z,9.76
2022-10-10T23:25:56.625Z,9.73
2022-10-10T23:28:24.283Z,9.71
2022-10-10T23:30:51.953Z,9.67
2022-10-10T23:33:19.924Z,9.63
2022-10-10T23:35:56.552Z,9.60
2022-10-10T23:38:24.197Z,9.56
2022-10-10T23:40:51.811Z,9.53
2022-10-10T23:43:19.482Z,9.49
2022-10-10T23:45:47.471Z,9.47
2022-10-10T23:48:16.585Z,9.44
2022-10-10T23:50:44.747Z,9.42
2022-10-10T23:53:12.372Z,9.40
2022-10-10T23:55:40.302Z,9.37
2022-10-10T23:58:08.096Z,9.33
